createdAt,value
2022-09-03T05:59:06.903Z,13.20
2022-09-03T06:04:02.117Z,13.30
2022-09-03T06:08:56.168Z,13.50
2022-09-03T06:29:00.141Z,14.40
2022-09-03T06:33:55.199Z,14.70
2022-09-03T06:38:49.133Z,14.80
2022-09-03T06:56:54.940Z,15.50
2022-09-03T07:01:48.876Z,15.50
2022-09-03T07:06:44.463Z,15.70
2022-09-03T07:25:56.768Z,16.60
2022-09-03T07:30:50.528Z,16.80
2022-09-03T07:35:43.954Z,16.90
2022-09-03T07:40:39.476Z,17.10
2022-09-03T07:59:53.275Z,17.80
2022-09-03T08:04:47.152Z,17.90
2022-09-03T08:09:40.688Z,18.20
2022-09-03T08:14:34.300Z,18.40
2022-09-03T08:19:29.713Z,18.60
2022-09-03T08:24:24.843Z,18.80
2022-09-03T08:29:18.351Z,19.10
2022-09-03T08:34:13.305Z,19.10
2022-09-03T08:39:10.803Z,19.30
2022-09-03T08:44:17.587Z,19.60
2022-09-03T08:49:15.188Z,19.80
2022-09-03T08:54:12.024Z,20.10
2022-09-03T08:59:06.031Z,20.20
2022-09-03T09:04:10.240Z,20.40
2022-09-03T09:09:14.048Z,20.60
2022-09-03T09:14:17.192Z,20.80
2022-09-03T09:19:24.016Z,21.10
2022-09-03T09:24:24.379Z,21.30
2022-09-03T09:29:18.267Z,21.50
2022-09-03T09:34:12.292Z,21.60
2022-09-03T09:39:11.207Z,21.80
2022-09-03T09:44:06.589Z,22.10
2022-09-03T09:49:01.483Z,22.50
2022-09-03T09:54:12.244Z,22.80
2022-09-03T09:59:10.112Z,22.70
2022-09-03T10:04:12.229Z,22.50
2022-09-03T10:09:11.084Z,22.50
2022-09-03T10:14:05.658Z,22.90
2022-09-03T10:19:10.931Z,23.30
2022-09-03T10:24:17.326Z,23.90
2022-09-03T10:29:10.857Z,24.40
2022-09-03T10:34:14.337Z,24.70
2022-09-03T10:39:15.031Z,24.50
2022-09-03T10:44:35.510Z,24.80
2022-09-03T10:49:43.681Z,25.00
2022-09-03T10:54:53.933Z,25.20
2022-09-03T11:00:02.059Z,26.00
2022-09-03T11:05:03.108Z,26.70
2022-09-03T11:10:04.233Z,27.00
2022-09-03T11:15:05.404Z,27.20
2022-09-03T11:20:10.888Z,27.40
2022-09-03T11:25:05.403Z,27.30
2022-09-03T11:30:03.565Z,27.40
2022-09-03T11:34:58.191Z,27.60
2022-09-03T11:40:05.430Z,27.80
2022-09-03T11:45:14.938Z,28.00
2022-09-03T11:50:17.743Z,27.50
2022-09-03T11:55:12.817Z,26.80
2022-09-03T12:00:13.185Z,27.50
2022-09-03T12:05:29.067Z,28.00
2022-09-03T12:10:34.981Z,28.50
2022-09-03T12:15:50.634Z,28.70
2022-09-03T12:20:45.275Z,28.90
2022-09-03T12:25:47.667Z,29.00
2022-09-03T12:30:41.498Z,29.20
2022-09-03T12:46:13.304Z,28.70
2022-09-03T12:56:25.757Z,28.90
2022-09-03T13:01:26.085Z,29.30
2022-09-03T13:06:23.864Z,28.80
2022-09-03T13:11:19.632Z,29.20
2022-09-03T13:16:54.310Z,29.80
2022-09-03T13:21:53.128Z,30.10
2022-09-03T13:27:03.876Z,30.40
2022-09-03T13:32:06.363Z,30.40
2022-09-03T13:37:06.334Z,30.40
2022-09-03T13:42:08.015Z,30.50
2022-09-03T13:47:14.711Z,30.20
2022-09-03T13:52:23.383Z,29.60
2022-09-03T13:57:29.513Z,29.10
2022-09-03T14:02:45.015Z,29.60
2022-09-03T14:07:51.996Z,29.80
2022-09-03T14:12:48.681Z,29.50
2022-09-03T14:17:50.376Z,29.40
2022-09-03T14:22:53.323Z,29.40
2022-09-03T14:27:47.172Z,29.00
2022-09-03T14:32:52.316Z,28.50
2022-09-03T14:38:28.186Z,28.00
2022-09-03T14:43:52.219Z,27.60
2022-09-03T14:49:20.159Z,27.30
2022-09-03T14:54:52.937Z,27.20
2022-09-03T15:00:12.055Z,27.10
2022-09-03T15:05:19.468Z,27.10
2022-09-03T15:10:24.178Z,27.10
2022-09-03T15:15:23.242Z,26.80
2022-09-03T15:20:33.458Z,26.60
2022-09-03T15:25:40.157Z,27.70
2022-09-03T15:30:40.171Z,27.10
2022-09-03T15:35:56.239Z,26.60
2022-09-03T15:40:55.961Z,26.40
2022-09-03T15:45:58.453Z,26.10
2022-09-03T15:50:59.679Z,26.00
2022-09-03T15:56:10.479Z,26.00
2022-09-03T16:01:20.306Z,26.20
2022-09-03T16:06:26.607Z,26.30
2022-09-03T16:11:31.120Z,26.00
2022-09-03T16:16:30.680Z,25.70
2022-09-03T16:21:32.438Z,25.40
2022-09-03T16:26:33.695Z,26.00
2022-09-03T16:31:40.890Z,25.40
2022-09-03T16:36:49.648Z,24.90
2022-09-03T16:41:52.232Z,24.50
2022-09-03T16:46:54.842Z,24.30
2022-09-03T16:51:56.449Z,24.10
2022-09-03T16:57:00.463Z,23.90
2022-09-03T17:02:30.095Z,23.70
2022-09-03T17:07:55.834Z,23.50
2022-09-03T17:13:06.892Z,23.30
2022-09-03T17:18:13.457Z,23.20
2022-09-03T17:23:14.663Z,23.00
2022-09-03T17:28:28.417Z,23.00
2022-09-03T17:33:45.889Z,23.00
2022-09-03T17:39:27.416Z,22.80
2022-09-03T17:44:35.444Z,22.80
2022-09-03T17:49:33.596Z,22.70
2022-09-03T17:54:37.775Z,22.60
2022-09-03T17:59:44.344Z,22.50
2022-09-03T18:04:47.528Z,22.40
2022-09-03T18:09:47.419Z,22.10
2022-09-03T18:14:51.596Z,21.90
2022-09-03T18:20:08.574Z,21.80
2022-09-03T18:25:20.011Z,21.60
2022-09-03T18:30:34.323Z,21.50
2022-09-03T18:35:48.856Z,21.40
2022-09-03T18:41:09.987Z,21.30
